Time;durP1;ratioP1;P1;durP2;ratioP2;P2;SDS_P1;SDS_P2;PMS_P1;PMS_P2;Temp;Humidity;BMP_temperature;BMP_pressure;BME280_temperature;BME280_humidity;BME280_pressure;Samples;Min_cycle;Max_cycle;Signal;HPM_P1;HPM_P2
2023/06/15 00:00:19;;;;;;;2.33;1.80;;;19.30;99.90;;;;;;5102755;28;20223;-62
2023/06/15 00:02:47;;;;;;;4.13;2.13;;;19.30;99.90;;;;;;5127430;22;20309;-62
2023/06/15 00:05:15;;;;;;;2.30;2.13;;;19.30;99.90;;;;;;5097813;28;20231;-62
2023/06/15 00:07:43;;;;;;;1.75;1.65;;;19.20;99.90;;;;;;5107127;28;20200;-62
2023/06/15 00:10:11;;;;;;;1.80;1.70;;;19.20;99.90;;;;;;5098027;28;20221;-63
2023/06/15 00:12:39;;;;;;;1.65;1.63;;;19.20;99.90;;;;;;5080888;28;20784;-62
2023/06/15 00:15:08;;;;;;;2.78;1.90;;;19.20;99.90;;;;;;5107040;28;20244;-62
2023/06/15 00:17:37;;;;;;;5.20;2.00;;;19.10;99.90;;;;;;5105167;28;20242;-62
2023/06/15 00:20:08;;;;;;;1.92;1.80;;;19.10;99.90;;;;;;5099277;28;20203;-62
2023/06/15 00:22:38;;;;;;;2.10;1.90;;;19.10;99.90;;;;;;5110884;28;20760;-63
2023/06/15 00:25:06;;;;;;;4.70;2.05;;;19.00;99.90;;;;;;5098069;28;20253;-62
2023/06/15 00:27:34;;;;;;;2.65;1.60;;;19.00;99.90;;;;;;5105151;28;20195;-63
2023/06/15 00:30:02;;;;;;;2.80;1.90;;;18.90;99.90;;;;;;5099131;28;20200;-62
2023/06/15 00:32:30;;;;;;;2.65;1.80;;;18.80;99.90;;;;;;5111446;28;20278;-62
2023/06/15 00:34:59;;;;;;;1.70;1.70;;;18.80;99.90;;;;;;5093509;28;20203;-62
2023/06/15 00:37:27;;;;;;;2.65;1.98;;;18.80;99.90;;;;;;5093732;28;20224;-61
2023/06/15 00:39:55;;;;;;;1.83;1.73;;;18.70;99.90;;;;;;5107462;28;20203;-61
2023/06/15 00:42:23;;;;;;;2.05;1.90;;;18.70;99.90;;;;;;5096977;28;20242;-62
2023/06/15 00:44:51;;;;;;;5.65;1.98;;;18.60;99.90;;;;;;5108347;28;20249;-62
2023/06/15 00:47:20;;;;;;;2.10;2.00;;;18.60;99.90;;;;;;5102838;28;20759;-62
2023/06/15 00:49:48;;;;;;;2.88;2.13;;;18.60;99.90;;;;;;5100590;28;20663;-63
2023/06/15 00:52:17;;;;;;;2.80;2.08;;;18.60;99.90;;;;;;5096366;28;20250;-62
2023/06/15 00:54:46;;;;;;;2.60;1.90;;;18.60;99.90;;;;;;5093649;28;20280;-61
2023/06/15 00:57:14;;;;;;;4.13;2.05;;;18.50;99.90;;;;;;5101740;28;20191;-62
2023/06/15 00:59:42;;;;;;;1.83;1.83;;;18.50;99.90;;;;;;5101509;28;20235;-62
2023/06/15 01:02:12;;;;;;;1.88;1.70;;;18.50;99.90;;;;;;5110114;28;20252;-63
2023/06/15 01:04:40;;;;;;;4.68;1.95;;;18.50;99.90;;;;;;5080780;28;20206;-62
2023/06/15 01:07:10;;;;;;;2.67;1.90;;;18.40;99.90;;;;;;5106019;28;20730;-62
2023/06/15 01:09:41;;;;;;;1.90;1.80;;;18.40;99.90;;;;;;5104978;28;20247;-62
2023/06/15 01:12:11;;;;;;;2.67;1.70;;;18.40;99.90;;;;;;5097582;28;20211;-63
2023/06/15 01:14:39;;;;;;;2.08;1.98;;;18.30;99.90;;;;;;5080039;28;20230;-62
2023/06/15 01:17:09;;;;;;;2.05;1.95;;;18.30;99.90;;;;;;5106492;28;20196;-62
2023/06/15 01:19:53;;;;;;;3.03;2.10;;;18.30;99.90;;;;;;5104727;28;20624;-62
2023/06/15 01:22:35;;;;;;;1.90;1.80;;;18.30;99.90;;;;;;5096177;28;20227;-63
2023/06/15 01:25:12;;;;;;;3.22;1.60;;;18.20;99.90;;;;;;5106658;28;20573;-62
2023/06/15 01:27:41;;;;;;;1.92;1.70;;;18.20;99.90;;;;;;5093098;28;20761;-62
2023/06/15 01:30:10;;;;;;;2.28;1.90;;;18.20;99.90;;;;;;5109685;28;20266;-63
2023/06/15 01:32:37;;;;;;;1.88;1.88;;;18.20;99.90;;;;;;5096078;28;20215;-63
2023/06/15 01:35:06;;;;;;;2.55;1.73;;;18.10;99.90;;;;;;5105532;28;20292;-62
2023/06/15 01:37:34;;;;;;;5.30;1.85;;;18.10;99.90;;;;;;5103974;28;20199;-63
2023/06/15 01:40:02;;;;;;;2.08;1.90;;;18.10;99.90;;;;;;5098243;28;20231;-62
2023/06/15 01:42:30;;;;;;;1.95;1.80;;;18.10;99.90;;;;;;5109364;28;20224;-63
2023/06/15 01:44:59;;;;;;;1.73;1.60;;;18.10;99.90;;;;;;5098708;28;20232;-62
2023/06/15 01:47:27;;;;;;;1.95;1.85;;;18.10;99.90;;;;;;5102918;28;20266;-62
2023/06/15 01:49:55;;;;;;;1.90;1.80;;;18.00;99.90;;;;;;5106294;28;20198;-63
2023/06/15 01:52:23;;;;;;;1.98;1.60;;;18.00;99.90;;;;;;5094870;28;20696;-62
2023/06/15 01:54:50;;;;;;;2.10;2.00;;;18.00;99.90;;;;;;5093304;28;20287;-62
2023/06/15 01:57:19;;;;;;;4.30;1.75;;;18.00;99.90;;;;;;5092779;28;20204;-62
2023/06/15 01:59:47;;;;;;;2.42;2.05;;;18.00;99.90;;;;;;5094953;28;20204;-61
2023/06/15 02:02:16;;;;;;;4.68;2.50;;;18.00;99.90;;;;;;5101588;28;20477;-62
2023/06/15 02:04:44;;;;;;;2.80;2.08;;;17.90;99.90;;;;;;5092731;28;20200;-63
2023/06/15 02:07:12;;;;;;;2.78;2.03;;;17.90;99.90;;;;;;5101466;28;20296;-62
2023/06/15 02:09:40;;;;;;;2.20;2.10;;;17.90;99.90;;;;;;5100915;28;20290;-62
2023/06/15 02:12:09;;;;;;;2.08;1.98;;;17.80;99.90;;;;;;5108188;28;20238;-61
2023/06/15 02:14:37;;;;;;;2.30;2.20;;;17.70;99.90;;;;;;5095791;28;20246;-62
2023/06/15 02:17:05;;;;;;;2.08;1.65;;;17.80;99.90;;;;;;5105576;28;20746;-62
2023/06/15 02:19:35;;;;;;;3.88;1.90;;;17.70;99.90;;;;;;5092634;28;20639;-63
2023/06/15 02:22:03;;;;;;;1.77;1.67;;;17.70;99.90;;;;;;5089493;28;20208;-62
2023/06/15 02:24:31;;;;;;;5.97;2.17;;;17.70;99.90;;;;;;5095019;28;20242;-62
2023/06/15 02:26:59;;;;;;;2.38;2.17;;;17.70;99.90;;;;;;5090625;28;20220;-62
2023/06/15 02:29:27;;;;;;;2.47;1.70;;;17.70;99.90;;;;;;5102515;28;20229;-62
2023/06/15 02:31:54;;;;;;;3.70;2.33;;;17.60;99.90;;;;;;5098670;28;20632;-61
2023/06/15 02:34:24;;;;;;;2.95;1.80;;;17.70;99.90;;;;;;5094853;28;20246;-62
2023/06/15 02:36:54;;;;;;;2.65;2.05;;;17.60;99.90;;;;;;5091676;28;20219;-62
2023/06/15 02:39:21;;;;;;;2.05;1.95;;;17.60;99.90;;;;;;5101303;28;20242;-63
2023/06/15 02:41:49;;;;;;;2.00;1.90;;;17.60;99.90;;;;;;5099882;28;20307;-62
2023/06/15 02:44:17;;;;;;;5.55;2.08;;;17.60;99.90;;;;;;5109229;28;20755;-62
2023/06/15 02:46:45;;;;;;;3.78;2.03;;;17.60;99.90;;;;;;5092774;28;20200;-62
2023/06/15 02:49:18;;;;;;;2.17;2.08;;;17.60;99.90;;;;;;5094824;28;20239;-62
2023/06/15 02:51:46;;;;;;;2.42;2.28;;;17.60;99.90;;;;;;5094170;28;20208;-62
2023/06/15 02:54:16;;;;;;;4.82;2.35;;;17.60;99.90;;;;;;5092190;28;20276;-62
2023/06/15 02:56:44;;;;;;;1.95;1.90;;;17.60;99.90;;;;;;5080139;28;20203;-62
2023/06/15 02:59:13;;;;;;;1.90;1.75;;;17.60;99.90;;;;;;5104261;28;20235;-62
2023/06/15 03:01:41;;;;;;;1.90;1.80;;;17.50;99.90;;;;;;5104222;28;20287;-63
2023/06/15 03:04:14;;;;;;;4.63;1.90;;;17.50;99.90;;;;;;5099181;28;20231;-61
2023/06/15 03:06:44;;;;;;;2.53;1.85;;;17.50;99.90;;;;;;5093464;28;20196;-62
2023/06/15 03:09:13;;;;;;;4.50;2.05;;;17.40;99.90;;;;;;5104507;28;20252;-62
2023/06/15 03:11:43;;;;;;;2.15;2.05;;;17.40;99.90;;;;;;5103935;28;20762;-63
2023/06/15 03:14:11;;;;;;;2.25;2.15;;;17.40;99.90;;;;;;5112129;28;20219;-62
2023/06/15 03:16:41;;;;;;;3.33;2.00;;;17.40;99.90;;;;;;5099326;28;20234;-62
2023/06/15 03:19:08;;;;;;;4.00;2.15;;;17.40;99.90;;;;;;5108121;28;20231;-62
2023/06/15 03:21:37;;;;;;;1.95;1.85;;;17.40;99.90;;;;;;5107877;28;20231;-62
2023/06/15 03:24:08;;;;;;;2.40;2.20;;;17.30;99.90;;;;;;5100727;28;20285;-63
2023/06/15 03:26:37;;;;;;;3.13;2.10;;;17.30;99.90;;;;;;5103103;28;20489;-62
2023/06/15 03:29:06;;;;;;;2.22;2.05;;;17.30;99.90;;;;;;5109127;28;20654;-63
2023/06/15 03:31:40;;;;;;;1.83;1.73;;;17.30;99.90;;;;;;5106816;28;20200;-62
2023/06/15 03:34:08;;;;;;;2.38;2.28;;;17.30;99.90;;;;;;5099818;28;20603;-62
2023/06/15 03:36:36;;;;;;;2.50;2.25;;;17.30;99.90;;;;;;5112097;28;20196;-61
2023/06/15 03:39:04;;;;;;;3.42;1.85;;;17.30;99.90;;;;;;5102260;28;20199;-63
2023/06/15 03:41:34;;;;;;;2.10;2.00;;;17.20;99.90;;;;;;5104891;28;20245;-62
2023/06/15 03:44:02;;;;;;;2.53;2.33;;;17.20;99.90;;;;;;5110038;28;20310;-62
2023/06/15 03:46:31;;;;;;;2.72;2.40;;;17.20;99.90;;;;;;5098662;28;20231;-63
2023/06/15 03:48:59;;;;;;;1.83;1.77;;;17.20;99.90;;;;;;5109346;28;20781;-61
2023/06/15 03:51:27;;;;;;;5.07;2.30;;;17.20;99.90;;;;;;5105352;28;20234;-62
2023/06/15 03:53:55;;;;;;;2.25;2.08;;;17.20;99.90;;;;;;5100913;28;20255;-61
2023/06/15 03:56:23;;;;;;;2.00;1.90;;;17.20;99.90;;;;;;5111325;28;20574;-62
2023/06/15 03:58:51;;;;;;;2.38;2.17;;;17.20;99.90;;;;;;5099911;28;20231;-61
2023/06/15 04:01:19;;;;;;;2.42;2.25;;;17.20;99.90;;;;;;5106328;28;20236;-62
2023/06/15 04:03:48;;;;;;;2.35;2.13;;;17.10;99.90;;;;;;5107876;28;20288;-61
2023/06/15 04:06:17;;;;;;;2.28;2.17;;;17.20;99.90;;;;;;5097873;28;20200;-62
2023/06/15 04:08:45;;;;;;;2.47;2.38;;;17.20;99.90;;;;;;5110478;28;20248;-62
2023/06/15 04:11:13;;;;;;;2.55;2.35;;;17.20;99.90;;;;;;5102552;28;20239;-63
2023/06/15 04:13:41;;;;;;;2.95;2.03;;;17.20;99.90;;;;;;5102602;28;20311;-62
2023/06/15 04:16:10;;;;;;;1.92;1.92;;;17.30;99.90;;;;;;5109116;28;20203;-62
2023/06/15 04:18:38;;;;;;;2.55;2.45;;;17.30;99.90;;;;;;5096437;28;20196;-62
2023/06/15 04:21:07;;;;;;;2.38;1.95;;;17.30;99.90;;;;;;5096697;28;20203;-61
2023/06/15 04:23:36;;;;;;;2.90;2.47;;;17.30;99.90;;;;;;5105276;28;20310;-62
2023/06/15 04:26:06;;;;;;;2.53;2.33;;;17.30;99.90;;;;;;5098977;28;20208;-62
2023/06/15 04:28:35;;;;;;;2.92;2.22;;;17.30;99.90;;;;;;5096685;28;20239;-62
2023/06/15 04:31:10;;;;;;;3.35;2.00;;;17.30;99.90;;;;;;5107786;28;20282;-62
2023/06/15 04:33:41;;;;;;;3.85;2.15;;;17.30;99.90;;;;;;5105546;28;20219;-62
2023/06/15 04:36:13;;;;;;;6.07;2.60;;;17.30;99.90;;;;;;5097467;28;20451;-62
2023/06/15 04:38:46;;;;;;;2.58;2.47;;;17.20;99.90;;;;;;5097681;28;20188;-62
2023/06/15 04:41:14;;;;;;;2.63;2.42;;;17.20;99.90;;;;;;5105965;28;20200;-61
2023/06/15 04:43:44;;;;;;;4.30;2.30;;;17.20;99.90;;;;;;5106275;28;20219;-62
2023/06/15 04:46:12;;;;;;;2.38;2.15;;;17.20;99.90;;;;;;5097333;28;20222;-62
2023/06/15 04:48:43;;;;;;;2.20;2.13;;;17.20;99.90;;;;;;5080108;28;20215;-62
2023/06/15 04:51:13;;;;;;;2.22;2.20;;;17.20;99.90;;;;;;5106005;28;20724;-63
2023/06/15 04:53:42;;;;;;;5.75;2.20;;;17.30;99.90;;;;;;5105914;28;20243;-63
2023/06/15 04:56:10;;;;;;;2.83;2.42;;;17.30;99.90;;;;;;5097545;28;20249;-63
2023/06/15 04:58:38;;;;;;;6.80;2.50;;;17.30;99.90;;;;;;5110282;28;20283;-63
2023/06/15 05:01:06;;;;;;;2.72;2.50;;;17.40;99.90;;;;;;5100787;28;20195;-62
2023/06/15 05:03:34;;;;;;;2.75;2.58;;;17.40;99.90;;;;;;5102709;28;20224;-62
2023/06/15 05:06:02;;;;;;;3.58;2.25;;;17.40;99.90;;;;;;5109064;28;20222;-63
2023/06/15 05:08:32;;;;;;;4.13;2.78;;;17.50;99.90;;;;;;5096700;28;20242;-63
2023/06/15 05:11:01;;;;;;;3.30;1.98;;;17.50;99.90;;;;;;5108137;28;20207;-62
2023/06/15 05:13:30;;;;;;;3.17;2.00;;;17.50;99.90;;;;;;5104603;28;20654;-62
2023/06/15 05:15:57;;;;;;;3.50;2.38;;;17.80;99.90;;;;;;5099444;28;20204;-62
2023/06/15 05:18:26;;;;;;;2.03;1.90;;;18.10;99.90;;;;;;5110346;28;20634;-59
2023/06/15 05:20:54;;;;;;;2.28;2.17;;;18.40;99.90;;;;;;5098535;28;20199;-60
2023/06/15 05:23:22;;;;;;;2.00;1.90;;;18.70;99.90;;;;;;5102474;28;20216;-60
2023/06/15 05:25:52;;;;;;;2.22;2.00;;;19.00;99.90;;;;;;5096623;28;20253;-61
2023/06/15 05:28:19;;;;;;;2.38;2.15;;;19.10;99.90;;;;;;5103578;28;20255;-62
2023/06/15 05:30:47;;;;;;;2.72;2.50;;;19.30;99.90;;;;;;5096927;28;20678;-62
2023/06/15 05:33:15;;;;;;;2.90;2.63;;;19.40;99.90;;;;;;5092376;28;20306;-62
2023/06/15 05:35:43;;;;;;;3.92;2.47;;;19.50;99.90;;;;;;5104916;28;20254;-61
2023/06/15 05:38:11;;;;;;;4.82;2.47;;;19.60;99.90;;;;;;5096644;28;20200;-62
2023/06/15 05:40:39;;;;;;;2.75;2.55;;;19.70;99.90;;;;;;5109164;28;20701;-61
2023/06/15 05:43:08;;;;;;;2.30;2.20;;;19.80;99.90;;;;;;5100065;28;20296;-61
2023/06/15 05:45:36;;;;;;;4.32;2.47;;;19.80;99.90;;;;;;5101174;28;20369;-62
2023/06/15 05:48:07;;;;;;;5.38;2.28;;;19.90;99.90;;;;;;5108625;28;20211;-61
2023/06/15 05:50:37;;;;;;;5.35;2.80;;;20.00;99.90;;;;;;5095886;28;20701;-61
2023/06/15 05:53:05;;;;;;;3.28;2.30;;;20.00;99.90;;;;;;5105578;28;20253;-60
2023/06/15 05:55:33;;;;;;;2.75;2.55;;;20.10;99.90;;;;;;5103251;28;20290;-59
2023/06/15 05:58:01;;;;;;;3.75;2.47;;;20.10;99.90;;;;;;5097522;28;20199;-60
2023/06/15 06:00:31;;;;;;;2.95;2.75;;;20.00;99.90;;;;;;5109119;28;20195;-61
2023/06/15 06:02:59;;;;;;;4.07;2.25;;;20.10;99.90;;;;;;5098861;28;20227;-56
2023/06/15 06:05:27;;;;;;;3.67;2.35;;;20.20;99.90;;;;;;5102022;28;20234;-55
2023/06/15 06:07:55;;;;;;;3.13;2.20;;;20.20;99.90;;;;;;5106218;28;20235;-59
2023/06/15 06:10:23;;;;;;;4.57;2.58;;;20.30;99.90;;;;;;5095630;28;20255;-57
2023/06/15 06:12:52;;;;;;;7.60;2.58;;;20.30;99.90;;;;;;5106977;28;20298;-57
2023/06/15 06:15:20;;;;;;;2.45;2.25;;;20.30;99.90;;;;;;5101023;28;20282;-55
2023/06/15 06:17:49;;;;;;;4.47;2.55;;;20.40;99.90;;;;;;5098909;28;20582;-55
2023/06/15 06:20:36;;;;;;;2.80;2.50;;;20.50;99.90;;;;;;5108648;28;20726;-56
2023/06/15 06:23:04;;;;;;;2.70;2.33;;;20.50;99.90;;;;;;5098773;28;20230;-55
2023/06/15 06:25:32;;;;;;;2.80;2.53;;;20.50;99.90;;;;;;5100544;28;20200;-55
2023/06/15 06:28:00;;;;;;;2.30;2.13;;;20.60;99.90;;;;;;5090644;28;20242;-55
2023/06/15 06:30:29;;;;;;;5.57;2.72;;;20.60;99.90;;;;;;5108241;28;20230;-55
2023/06/15 06:32:58;;;;;;;2.80;2.22;;;20.60;99.90;;;;;;5097433;28;20219;-54
2023/06/15 06:35:28;;;;;;;3.88;2.40;;;20.60;99.90;;;;;;5101469;28;20226;-55
2023/06/15 06:37:56;;;;;;;5.55;1.90;;;20.60;99.90;;;;;;5105539;28;20282;-59
2023/06/15 06:40:25;;;;;;;2.45;2.25;;;20.60;99.90;;;;;;5095126;28;20279;-55
2023/06/15 06:42:53;;;;;;;2.92;2.53;;;20.60;99.90;;;;;;5083676;28;20261;-55
2023/06/15 06:45:21;;;;;;;3.05;2.80;;;20.70;99.90;;;;;;5100484;28;20286;-55
2023/06/15 06:47:49;;;;;;;3.88;2.50;;;20.70;99.90;;;;;;5098690;28;20200;-56
2023/06/15 06:50:19;;;;;;;6.03;2.70;;;20.80;99.90;;;;;;5108419;28;20226;-57
2023/06/15 06:52:47;;;;;;;4.22;2.47;;;20.80;99.90;;;;;;5095918;28;20223;-58
2023/06/15 06:55:15;;;;;;;3.88;2.72;;;20.80;99.90;;;;;;5102912;28;20695;-57
2023/06/15 06:57:43;;;;;;;3.17;2.42;;;20.80;99.90;;;;;;5103586;28;20697;-57
2023/06/15 07:00:12;;;;;;;7.30;2.45;;;20.80;99.90;;;;;;5095443;28;20235;-55
2023/06/15 07:02:40;;;;;;;2.30;2.20;;;20.90;99.90;;;;;;5075240;28;20310;-55
2023/06/15 07:05:08;;;;;;;2.97;2.67;;;20.90;99.90;;;;;;5092818;28;20200;-55
2023/06/15 07:07:37;;;;;;;3.15;2.40;;;21.00;99.90;;;;;;5091516;28;20255;-55
2023/06/15 07:10:07;;;;;;;2.88;2.55;;;21.00;99.90;;;;;;5090992;28;20255;-58
2023/06/15 07:12:35;;;;;;;5.18;2.80;;;21.10;99.90;;;;;;5106739;28;20661;-58
2023/06/15 07:15:03;;;;;;;3.55;2.72;;;21.10;99.90;;;;;;5097834;28;20275;-55
2023/06/15 07:17:31;;;;;;;2.30;2.10;;;21.10;99.90;;;;;;5100885;28;20228;-55
2023/06/15 07:19:59;;;;;;;4.03;2.65;;;21.10;99.90;;;;;;5105688;28;20213;-55
2023/06/15 07:22:27;;;;;;;3.50;2.55;;;21.20;99.90;;;;;;5093673;28;20279;-55
2023/06/15 07:24:56;;;;;;;3.03;2.70;;;21.20;99.90;;;;;;5105471;28;20257;-55
2023/06/15 07:27:24;;;;;;;2.80;2.45;;;21.20;99.90;;;;;;5091595;28;20200;-55
2023/06/15 07:29:52;;;;;;;3.88;2.58;;;21.30;99.90;;;;;;5104661;28;20310;-57
2023/06/15 07:32:20;;;;;;;3.10;2.42;;;21.30;99.90;;;;;;5093820;28;20208;-56
2023/06/15 07:34:48;;;;;;;4.78;2.60;;;21.40;99.90;;;;;;5104632;28;20205;-59
2023/06/15 07:37:16;;;;;;;7.97;3.05;;;21.50;99.90;;;;;;5090767;28;20211;-58
2023/06/15 07:39:44;;;;;;;3.92;2.30;;;21.60;99.90;;;;;;5102647;28;20233;-57
2023/06/15 07:42:14;;;;;;;4.25;2.70;;;21.60;99.90;;;;;;5095945;28;20287;-60
2023/06/15 07:44:41;;;;;;;7.63;2.63;;;21.70;99.90;;;;;;5090320;28;20314;-55
2023/06/15 07:47:10;;;;;;;6.75;2.95;;;21.80;99.90;;;;;;5101951;28;20291;-55
2023/06/15 07:49:38;;;;;;;2.38;2.20;;;21.70;99.90;;;;;;5101757;28;20307;-59
2023/06/15 07:52:14;;;;;;;5.30;2.80;;;21.80;99.90;;;;;;5096840;28;20581;-55
2023/06/15 07:54:42;;;;;;;3.38;2.50;;;21.80;99.90;;;;;;5110629;28;20662;-56
2023/06/15 07:57:10;;;;;;;5.22;2.95;;;21.90;99.90;;;;;;5102519;28;20207;-55
2023/06/15 07:59:39;;;;;;;3.53;2.50;;;22.00;99.90;;;;;;5103087;28;20238;-55
2023/06/15 08:02:08;;;;;;;3.20;2.30;;;22.00;99.90;;;;;;5110336;28;20203;-55
2023/06/15 08:04:36;;;;;;;5.55;2.70;;;22.10;99.90;;;;;;5097209;28;20609;-61
2023/06/15 08:07:04;;;;;;;8.27;2.63;;;22.20;99.90;;;;;;5107833;28;20238;-54
2023/06/15 08:09:32;;;;;;;3.08;2.65;;;22.20;99.90;;;;;;5105033;28;20549;-55
2023/06/15 08:12:01;;;;;;;5.32;2.47;;;22.20;99.90;;;;;;5099783;28;20691;-56
2023/06/15 08:14:29;;;;;;;2.80;2.60;;;22.10;99.90;;;;;;5110852;28;20693;-59
2023/06/15 08:16:59;;;;;;;2.63;2.42;;;22.30;99.90;;;;;;5099964;28;20632;-58
2023/06/15 08:19:27;;;;;;;2.47;2.38;;;22.40;99.90;;;;;;5104492;28;20199;-55
2023/06/15 08:21:55;;;;;;;2.53;2.15;;;22.50;99.90;;;;;;5108418;28;20203;-56
2023/06/15 08:24:22;;;;;;;3.95;2.47;;;22.60;99.90;;;;;;5097310;28;20223;-55
2023/06/15 08:26:54;;;;;;;2.75;2.65;;;22.70;99.90;;;;;;5101522;28;20196;-55
2023/06/15 08:29:22;;;;;;;4.25;2.00;;;22.80;99.90;;;;;;5104572;28;20257;-58
2023/06/15 08:31:51;;;;;;;2.65;2.45;;;22.90;99.90;;;;;;5107627;28;20226;-56
2023/06/15 08:34:21;;;;;;;2.40;2.10;;;23.00;99.90;;;;;;5097145;28;20224;-59
2023/06/15 08:36:49;;;;;;;2.45;2.10;;;23.10;99.90;;;;;;5109254;28;20675;-55
2023/06/15 08:39:17;;;;;;;3.45;2.58;;;23.10;99.90;;;;;;5102569;28;20256;-54
2023/06/15 08:41:46;;;;;;;2.72;2.63;;;23.00;99.90;;;;;;5101159;28;20204;-54
2023/06/15 08:44:14;;;;;;;2.30;2.20;;;23.10;99.90;;;;;;5103192;28;20232;-56
2023/06/15 08:46:42;;;;;;;4.38;2.65;;;23.20;99.90;;;;;;5080902;28;20666;-55
2023/06/15 08:49:10;;;;;;;4.95;2.70;;;23.40;99.90;;;;;;5106038;28;20272;-55
2023/06/15 08:51:39;;;;;;;2.85;2.60;;;23.50;99.90;;;;;;5105181;28;20642;-55
2023/06/15 08:54:09;;;;;;;2.90;2.70;;;23.70;99.90;;;;;;5097611;28;20770;-55
2023/06/15 08:56:38;;;;;;;5.57;2.83;;;23.80;99.90;;;;;;5109822;28;20200;-56
2023/06/15 08:59:07;;;;;;;3.22;2.88;;;23.80;99.90;;;;;;5100427;28;20208;-56
2023/06/15 09:01:39;;;;;;;2.75;2.58;;;23.70;99.90;;;;;;5101750;28;20196;-56
2023/06/15 09:04:07;;;;;;;2.60;2.30;;;23.80;99.90;;;;;;5109045;28;20227;-58
2023/06/15 09:06:35;;;;;;;2.75;2.65;;;23.90;99.90;;;;;;5096375;28;20621;-57
2023/06/15 09:09:05;;;;;;;5.30;2.67;;;24.10;99.90;;;;;;5106255;28;20195;-57
2023/06/15 09:11:39;;;;;;;2.70;2.42;;;24.20;99.90;;;;;;5095726;28;20584;-60
2023/06/15 09:14:09;;;;;;;2.75;2.55;;;24.30;99.90;;;;;;5089876;28;20224;-60
2023/06/15 09:16:38;;;;;;;4.30;2.83;;;24.30;99.90;;;;;;5095060;28;20219;-58
2023/06/15 09:19:10;;;;;;;6.57;2.25;;;24.40;99.90;;;;;;5092955;28;20231;-56
2023/06/15 09:21:42;;;;;;;3.20;2.85;;;24.60;99.90;;;;;;5104487;28;20199;-58
2023/06/15 09:24:13;;;;;;;2.40;2.30;;;24.70;99.90;;;;;;5096950;28;20289;-55
2023/06/15 09:26:41;;;;;;;8.15;2.30;;;24.90;99.70;;;;;;5088650;28;20204;-59
2023/06/15 09:29:09;;;;;;;2.70;2.50;;;24.90;98.40;;;;;;5100461;28;20287;-60
2023/06/15 09:31:37;;;;;;;5.20;2.45;;;24.90;99.40;;;;;;5101282;28;20257;-58
2023/06/15 09:34:06;;;;;;;3.20;2.85;;;25.10;99.50;;;;;;5092193;28;20220;-59
2023/06/15 09:36:41;;;;;;;5.10;2.70;;;25.30;99.20;;;;;;5109392;28;20336;-56
2023/06/15 09:39:10;;;;;;;4.75;2.80;;;25.50;99.80;;;;;;5095009;28;20265;-58
2023/06/15 09:41:51;;;;;;;3.17;2.85;;;25.60;98.30;;;;;;5092542;28;20204;-57
2023/06/15 09:44:19;;;;;;;4.57;2.83;;;25.70;98.20;;;;;;5091315;28;20224;-56
2023/06/15 09:46:49;;;;;;;5.93;3.03;;;25.80;99.20;;;;;;5093202;28;20203;-56
2023/06/15 09:49:21;;;;;;;3.00;2.90;;;26.00;97.50;;;;;;5091437;28;20235;-57
2023/06/15 09:51:50;;;;;;;3.45;3.22;;;26.00;97.50;;;;;;5102392;28;20223;-56
2023/06/15 09:54:18;;;;;;;3.15;2.88;;;26.10;96.00;;;;;;5091993;28;20255;-59
2023/06/15 09:56:49;;;;;;;5.47;2.92;;;26.20;95.40;;;;;;5108026;28;20275;-58
2023/06/15 09:59:17;;;;;;;3.83;2.97;;;26.40;95.00;;;;;;5099953;28;20203;-56
2023/06/15 10:01:46;;;;;;;2.78;2.58;;;26.60;96.50;;;;;;5090491;28;20246;-58
2023/06/15 10:04:14;;;;;;;3.75;2.83;;;26.80;95.10;;;;;;5090975;28;20235;-61
2023/06/15 10:06:43;;;;;;;3.85;2.85;;;26.90;96.10;;;;;;5095723;28;20229;-60
2023/06/15 10:09:11;;;;;;;10.00;3.33;;;27.10;95.30;;;;;;5088670;28;20204;-56
2023/06/15 10:11:41;;;;;;;5.20;2.80;;;27.20;93.20;;;;;;5090676;28;20274;-61
2023/06/15 10:14:14;;;;;;;5.88;3.20;;;27.40;94.40;;;;;;5094232;28;20330;-57
2023/06/15 10:16:42;;;;;;;3.30;3.10;;;27.50;92.40;;;;;;5091961;28;20229;-58
2023/06/15 10:19:11;;;;;;;3.40;3.10;;;27.50;92.30;;;;;;5090932;28;20844;-54
2023/06/15 10:21:40;;;;;;;3.22;3.03;;;27.70;93.80;;;;;;5091788;28;20254;-56
2023/06/15 10:24:11;;;;;;;2.95;2.78;;;28.00;93.90;;;;;;5093795;28;20795;-54
2023/06/15 10:26:40;;;;;;;5.65;2.55;;;28.10;92.60;;;;;;5090114;28;20203;-58
2023/06/15 10:29:12;;;;;;;3.35;2.83;;;28.30;92.60;;;;;;5099826;28;20207;-54
2023/06/15 10:31:43;;;;;;;4.63;2.85;;;28.50;91.70;;;;;;5097453;28;20224;-57
2023/06/15 10:34:14;;;;;;;5.25;2.85;;;28.60;90.40;;;;;;5094473;28;20302;-57
2023/06/15 10:36:45;;;;;;;4.35;3.63;;;28.70;92.30;;;;;;5093178;28;20230;-55
2023/06/15 10:39:16;;;;;;;3.35;3.03;;;28.80;92.20;;;;;;5103892;28;20266;-57
2023/06/15 10:41:44;;;;;;;3.15;2.85;;;29.10;91.20;;;;;;5104425;28;20291;-55
2023/06/15 10:44:16;;;;;;;7.43;3.20;;;29.20;90.90;;;;;;5095753;28;20265;-54
2023/06/15 10:46:44;;;;;;;6.30;2.85;;;29.30;91.10;;;;;;5090990;28;20302;-55
2023/06/15 10:49:12;;;;;;;3.28;3.03;;;29.10;85.90;;;;;;5102756;28;20295;-56
2023/06/15 10:51:41;;;;;;;3.20;3.00;;;29.00;88.30;;;;;;5093951;28;20263;-56
2023/06/15 10:54:21;;;;;;;4.00;3.22;;;29.10;87.60;;;;;;5091504;28;20715;-55
2023/06/15 10:56:49;;;;;;;5.32;3.42;;;29.20;85.20;;;;;;5080963;28;20242;-54
2023/06/15 10:59:38;;;;;;;6.10;3.03;;;29.30;87.40;;;;;;5090803;28;20239;-55
2023/06/15 11:02:44;;;;;;;3.85;2.70;;;29.50;87.70;;;;;;5092513;28;20200;-56
2023/06/15 11:05:12;;;;;;;2.58;2.25;;;30.00;84.30;;;;;;5089475;28;20215;-56
2023/06/15 11:07:43;;;;;;;2.83;2.60;;;30.00;79.50;;;;;;5090393;28;20272;-58
2023/06/15 11:10:13;;;;;;;4.93;2.60;;;30.00;77.70;;;;;;5090341;28;20683;-54
2023/06/15 11:12:42;;;;;;;5.40;2.90;;;29.90;78.40;;;;;;5090563;28;20232;-54
2023/06/15 11:15:14;;;;;;;3.97;2.42;;;30.00;79.30;;;;;;5090605;28;20251;-56
2023/06/15 11:17:54;;;;;;;3.90;2.42;;;30.10;82.60;;;;;;5091378;28;20317;-55
2023/06/15 11:20:42;;;;;;;3.05;2.65;;;30.40;79.80;;;;;;5094310;28;20215;-59
2023/06/15 11:23:10;;;;;;;2.78;2.40;;;30.50;76.90;;;;;;5089779;28;20262;-55
2023/06/15 11:25:39;;;;;;;3.28;2.40;;;30.00;76.00;;;;;;5091629;28;20710;-57
2023/06/15 11:28:07;;;;;;;3.88;3.45;;;29.90;80.50;;;;;;5092147;28;20258;-58
2023/06/15 11:30:40;;;;;;;2.67;2.47;;;30.30;80.20;;;;;;5097034;28;20215;-59
2023/06/15 11:33:11;;;;;;;2.83;2.22;;;30.80;76.60;;;;;;5093073;28;20259;-54
2023/06/15 11:35:38;;;;;;;3.53;2.28;;;31.10;75.20;;;;;;5094210;28;20206;-53
2023/06/15 11:38:07;;;;;;;9.90;2.90;;;31.20;73.80;;;;;;5094666;28;20303;-53
2023/06/15 11:40:35;;;;;;;3.33;2.50;;;31.10;72.70;;;;;;5097266;28;20211;-54
2023/06/15 11:43:04;;;;;;;5.18;2.75;;;31.40;73.40;;;;;;5102514;28;20766;-54
2023/06/15 11:45:32;;;;;;;4.25;2.45;;;31.70;74.40;;;;;;5093802;28;20261;-55
2023/06/15 11:48:01;;;;;;;2.55;2.35;;;32.00;73.10;;;;;;5107940;28;20233;-56
2023/06/15 11:50:29;;;;;;;2.67;2.47;;;32.00;71.00;;;;;;5095506;28;20265;-56
2023/06/15 11:52:57;;;;;;;3.30;2.80;;;31.60;69.70;;;;;;5107026;28;20247;-53
2023/06/15 11:55:25;;;;;;;2.40;2.30;;;31.50;68.00;;;;;;5103480;28;20295;-53
2023/06/15 11:57:53;;;;;;;7.47;2.22;;;31.90;69.70;;;;;;5099390;28;20246;-54
2023/06/15 12:00:21;;;;;;;6.47;2.85;;;32.20;70.20;;;;;;5111208;28;20290;-54
2023/06/15 12:02:49;;;;;;;4.55;3.00;;;32.50;67.60;;;;;;5122381;22;21269;-74
2023/06/15 12:05:19;;;;;;;5.40;2.17;;;32.60;68.80;;;;;;5110145;28;20222;-75
2023/06/15 12:07:47;;;;;;;2.70;2.38;;;33.00;68.80;;;;;;5098466;28;20218;-75
2023/06/15 12:10:17;;;;;;;4.97;2.45;;;33.30;67.40;;;;;;5107962;28;20379;-75
2023/06/15 12:12:47;;;;;;;3.15;2.40;;;33.40;62.90;;;;;;5111382;28;20574;-75
2023/06/15 12:15:18;;;;;;;4.80;2.35;;;33.20;65.50;;;;;;5111058;28;20210;-75
2023/06/15 12:17:46;;;;;;;2.50;2.30;;;32.80;65.70;;;;;;5111776;28;20213;-75
2023/06/15 12:20:14;;;;;;;2.72;2.40;;;32.10;66.10;;;;;;5111294;28;20223;-74
2023/06/15 12:22:45;;;;;;;4.63;2.75;;;32.00;69.80;;;;;;5111003;28;20291;-75
2023/06/15 12:25:13;;;;;;;2.72;2.53;;;32.20;65.50;;;;;;5110744;28;20222;-75
2023/06/15 12:27:42;;;;;;;2.58;2.42;;;32.50;66.20;;;;;;5111520;28;20763;-75
2023/06/15 12:30:11;;;;;;;4.57;2.95;;;32.70;62.50;;;;;;5111269;28;20215;-75
2023/06/15 12:32:43;;;;;;;4.28;2.50;;;32.60;62.80;;;;;;5094720;28;20235;-75
2023/06/15 12:35:27;;;;;;;2.50;2.30;;;32.40;65.20;;;;;;5110451;28;20547;-75
2023/06/15 12:37:57;;;;;;;3.78;2.60;;;32.70;63.60;;;;;;5110840;28;20188;-75
2023/06/15 12:40:25;;;;;;;2.38;2.22;;;33.20;63.30;;;;;;5110980;28;20235;-75
2023/06/15 12:42:57;;;;;;;5.35;2.50;;;33.60;60.90;;;;;;5110945;28;20641;-75
2023/06/15 12:45:25;;;;;;;5.18;2.58;;;33.80;63.00;;;;;;5110091;28;20545;-75
2023/06/15 12:47:53;;;;;;;4.05;2.90;;;33.90;60.90;;;;;;5111123;28;20196;-75
2023/06/15 12:50:21;;;;;;;6.05;2.70;;;33.50;60.00;;;;;;5110965;28;20265;-75
2023/06/15 12:52:49;;;;;;;4.63;2.85;;;32.70;60.80;;;;;;5110977;28;20282;-75
2023/06/15 12:55:18;;;;;;;5.72;2.33;;;31.90;61.20;;;;;;5110075;28;20254;-75
2023/06/15 12:57:46;;;;;;;5.53;2.80;;;31.30;61.60;;;;;;5111057;28;20240;-75